createdAt,value
2022-10-01T00:01:05.079Z,14.30
2022-10-01T00:03:38.427Z,14.33
2022-10-01T00:06:14.006Z,14.33
2022-10-01T00:08:45.861Z,14.33
2022-10-01T00:11:19.299Z,14.33
2022-10-01T00:13:50.417Z,14.33
2022-10-01T00:16:23.275Z,14.34
2022-10-01T00:18:53.850Z,14.27
2022-10-01T00:21:29.301Z,14.25
2022-10-01T00:24:01.313Z,14.19
2022-10-01T00:26:35.073Z,14.17
2022-10-01T00:29:07.941Z,14.18
2022-10-01T00:31:38.572Z,14.11
2022-10-01T00:34:09.396Z,14.13
2022-10-01T00:36:45.234Z,14.16
2022-10-01T00:39:15.918Z,14.16
2022-10-01T00:41:46.730Z,14.13
2022-10-01T00:44:37.261Z,14.15
2022-10-01T00:47:21.520Z,14.19
2022-10-01T00:49:55.410Z,14.20
2022-10-01T00:52:34.880Z,14.22
2022-10-01T00:55:12.033Z,14.20
2022-10-01T00:57:43.748Z,14.22
2022-10-01T01:00:16.560Z,14.23
2022-10-01T01:02:47.283Z,14.21
2022-10-01T01:05:17.599Z,14.21
2022-10-01T01:07:53.122Z,14.19
2022-10-01T01:10:33.357Z,14.23
2022-10-01T01:13:14.302Z,14.22
2022-10-01T01:15:50.767Z,14.23
2022-10-01T01:18:25.997Z,14.25
2022-10-01T01:21:14.965Z,14.30
2022-10-01T01:24:23.389Z,14.33
2022-10-01T01:27:06.992Z,14.36
2022-10-01T01:29:45.132Z,14.36
2022-10-01T01:32:22.464Z,14.37
2022-10-01T01:34:55.474Z,14.36
2022-10-01T01:37:32.064Z,14.27
2022-10-01T01:40:05.506Z,14.34
2022-10-01T01:42:40.341Z,14.35
2022-10-01T01:45:18.775Z,14.37
2022-10-01T01:47:49.576Z,14.36
2022-10-01T01:50:20.806Z,14.34
2022-10-01T01:52:51.716Z,14.34
2022-10-01T01:55:22.803Z,14.31
2022-10-01T01:57:53.374Z,14.28
2022-10-01T02:00:26.625Z,14.34
2022-10-01T02:02:59.629Z,14.35
2022-10-01T02:05:33.482Z,14.38
2022-10-01T02:08:28.121Z,14.44
2022-10-01T02:11:21.671Z,14.63
2022-10-01T02:14:04.964Z,14.72
2022-10-01T02:16:51.054Z,14.71
2022-10-01T02:19:28.206Z,14.69
2022-10-01T02:22:03.325Z,14.74
2022-10-01T02:24:42.341Z,14.71
2022-10-01T02:27:16.683Z,14.69
2022-10-01T02:29:48.711Z,14.67
2022-10-01T02:32:22.476Z,14.83
2022-10-01T02:34:53.627Z,14.80
2022-10-01T02:37:28.371Z,14.77
2022-10-01T02:40:00.825Z,14.70
2022-10-01T02:42:33.066Z,14.76
2022-10-01T02:45:06.181Z,14.77
2022-10-01T02:47:44.610Z,14.76
2022-10-01T02:50:15.925Z,14.76
2022-10-01T02:52:50.836Z,14.74
2022-10-01T02:55:23.260Z,14.74
2022-10-01T02:57:53.670Z,14.74
2022-10-01T03:00:24.438Z,14.76
2022-10-01T03:02:57.404Z,14.77
2022-10-01T03:05:27.578Z,14.72
2022-10-01T03:07:57.698Z,14.78
2022-10-01T03:10:29.295Z,14.78
2022-10-01T03:13:01.812Z,14.76
2022-10-01T03:15:32.087Z,14.76
2022-10-01T03:18:05.109Z,14.74
2022-10-01T03:20:35.292Z,14.77
2022-10-01T03:23:05.429Z,14.79
2022-10-01T03:25:36.517Z,14.83
2022-10-01T03:28:06.800Z,14.74
2022-10-01T03:30:36.957Z,14.81
2022-10-01T03:33:09.689Z,14.86
2022-10-01T03:35:39.875Z,14.81
2022-10-01T03:38:10.253Z,14.76
2022-10-01T03:40:40.376Z,14.72
2022-10-01T03:43:10.525Z,14.74
2022-10-01T03:45:40.707Z,14.78
2022-10-01T03:48:13.750Z,14.74
2022-10-01T03:50:43.987Z,14.76
2022-10-01T03:53:14.134Z,14.76
2022-10-01T03:55:44.330Z,14.76
2022-10-01T03:58:14.453Z,14.74
2022-10-01T04:00:47.205Z,14.70
2022-10-01T04:03:20.806Z,14.70
2022-10-01T04:05:51.162Z,14.63
2022-10-01T04:08:24.426Z,14.70
2022-10-01T04:10:54.778Z,14.66
2022-10-01T04:13:24.945Z,14.68
2022-10-01T04:15:55.073Z,14.70
2022-10-01T04:18:27.861Z,14.71
2022-10-01T04:20:58.036Z,14.71
2022-10-01T04:23:31.886Z,14.70
2022-10-01T04:26:03.798Z,14.68
2022-10-01T04:28:35.259Z,14.68
2022-10-01T04:31:18.012Z,14.66
2022-10-01T04:33:51.351Z,14.67
2022-10-01T04:36:21.511Z,14.61
2022-10-01T04:38:57.994Z,14.64
2022-10-01T04:41:31.661Z,14.64
2022-10-01T04:44:02.494Z,14.66
2022-10-01T04:46:32.909Z,14.71
2022-10-01T04:49:05.801Z,14.70
2022-10-01T04:51:36.329Z,14.63
2022-10-01T04:54:06.800Z,14.61
2022-10-01T04:56:36.933Z,14.63
2022-10-01T04:59:07.089Z,14.64
2022-10-01T05:01:37.879Z,14.67
2022-10-01T05:04:11.578Z,14.69
2022-10-01T05:06:41.950Z,14.67
2022-10-01T05:09:12.150Z,14.65
2022-10-01T05:11:42.313Z,14.65
2022-10-01T05:14:15.411Z,14.68
2022-10-01T05:16:45.701Z,14.71
2022-10-01T05:19:18.538Z,14.71
2022-10-01T05:21:48.695Z,14.72
2022-10-01T05:24:18.938Z,14.68
2022-10-01T05:26:49.103Z,14.70
2022-10-01T05:29:19.463Z,14.71
2022-10-01T05:31:50.343Z,14.74
2022-10-01T05:34:23.242Z,14.75
2022-10-01T05:36:53.424Z,14.71
2022-10-01T05:39:23.547Z,14.73
2022-10-01T05:41:55.599Z,14.74
2022-10-01T05:44:26.194Z,14.72
2022-10-01T05:46:56.829Z,14.73
2022-10-01T05:49:29.553Z,14.75
2022-10-01T05:52:01.131Z,14.76
2022-10-01T05:54:36.294Z,14.77
2022-10-01T05:57:08.080Z,14.77
2022-10-01T05:59:38.695Z,14.83
2022-10-01T06:02:12.865Z,14.85
2022-10-01T06:04:45.900Z,14.88
2022-10-01T06:07:16.230Z,14.89
2022-10-01T06:09:46.952Z,14.92
2022-10-01T06:12:19.788Z,14.94
2022-10-01T06:14:50.221Z,14.92
2022-10-01T06:17:20.448Z,14.94
2022-10-01T06:19:54.361Z,14.95
2022-10-01T06:22:24.441Z,14.96
2022-10-01T06:24:56.668Z,14.98
2022-10-01T06:27:26.975Z,15.02
2022-10-01T06:29:57.226Z,15.06
2022-10-01T06:32:29.604Z,15.10
2022-10-01T06:35:04.622Z,15.12
2022-10-01T06:37:34.754Z,15.12
2022-10-01T06:40:04.950Z,15.15
2022-10-01T06:42:36.055Z,15.11
2022-10-01T06:45:06.715Z,15.07
2022-10-01T06:47:38.034Z,15.11
2022-10-01T06:50:11.960Z,15.12
2022-10-01T06:52:55.078Z,15.17
2022-10-01T06:55:29.191Z,15.20
2022-10-01T06:58:00.632Z,15.20
2022-10-01T07:00:32.526Z,15.24
2022-10-01T07:03:06.586Z,15.32
2022-10-01T07:05:39.643Z,15.41
2022-10-01T07:08:10.824Z,15.47
2022-10-01T07:10:41.065Z,15.58
2022-10-01T07:13:12.281Z,15.72
2022-10-01T07:15:43.343Z,15.77
2022-10-01T07:18:14.669Z,15.87
2022-10-01T07:20:50.045Z,15.88
2022-10-01T07:23:22.152Z,16.00
2022-10-01T07:25:52.396Z,16.13
2022-10-01T07:28:26.211Z,16.23
2022-10-01T07:31:03.820Z,16.33
2022-10-01T07:33:33.923Z,16.43
2022-10-01T07:36:09.009Z,16.49
2022-10-01T07:38:39.300Z,16.52
2022-10-01T07:41:09.438Z,16.53
2022-10-01T07:43:41.636Z,16.56
2022-10-01T07:46:11.756Z,16.49
2022-10-01T07:48:42.284Z,16.45
2022-10-01T07:51:15.183Z,16.45
2022-10-01T07:53:45.948Z,16.48
2022-10-01T07:56:16.149Z,16.48
2022-10-01T07:58:46.427Z,16.53
2022-10-01T08:01:17.369Z,16.62
2022-10-01T08:03:47.582Z,16.67
2022-10-01T08:06:24.686Z,16.74
2022-10-01T08:08:55.807Z,16.86
2022-10-01T08:11:26.035Z,16.94
2022-10-01T08:13:57.349Z,16.99
2022-10-01T08:16:33.644Z,17.03
2022-10-01T08:19:04.181Z,17.09
2022-10-01T08:21:38.215Z,17.08
2022-10-01T08:24:08.924Z,17.14
2022-10-01T08:26:39.342Z,17.22
2022-10-01T08:29:11.630Z,17.23
2022-10-01T08:31:45.192Z,17.24
2022-10-01T08:34:15.357Z,17.22
2022-10-01T08:36:53.896Z,17.13
2022-10-01T08:39:24.025Z,17.05
2022-10-01T08:42:01.318Z,17.03
2022-10-01T08:44:37.601Z,17.04
2022-10-01T08:47:14.923Z,17.04
2022-10-01T08:49:49.253Z,16.96
2022-10-01T08:52:26.266Z,16.98
2022-10-01T08:55:00.961Z,17.06
2022-10-01T08:57:35.312Z,17.11
2022-10-01T09:00:08.678Z,17.16
2022-10-01T09:02:42.422Z,17.12
2022-10-01T09:05:24.938Z,17.03
2022-10-01T09:08:08.305Z,16.85
2022-10-01T09:10:47.166Z,16.84
2022-10-01T09:13:49.378Z,16.69
2022-10-01T09:16:27.642Z,16.74
2022-10-01T09:19:09.282Z,16.85
2022-10-01T09:21:50.776Z,16.85
2022-10-01T09:24:40.810Z,16.78
2022-10-01T09:27:16.708Z,16.93
2022-10-01T09:29:54.597Z,16.97
2022-10-01T09:32:29.372Z,17.11
2022-10-01T09:35:04.686Z,17.24
2022-10-01T09:37:44.476Z,17.27
2022-10-01T09:40:24.398Z,17.22
2022-10-01T09:42:54.951Z,17.23
2022-10-01T09:45:27.211Z,17.25
2022-10-01T09:48:05.381Z,17.25
2022-10-01T09:50:41.847Z,17.27
2022-10-01T09:53:20.717Z,17.30
2022-10-01T09:55:57.262Z,17.24
2022-10-01T09:58:30.818Z,17.21
2022-10-01T10:01:01.194Z,17.22
2022-10-01T10:03:35.376Z,17.16
2022-10-01T10:06:08.302Z,17.09
2022-10-01T10:08:41.477Z,17.07
2022-10-01T10:11:23.413Z,17.06
2022-10-01T10:13:55.881Z,17.13
2022-10-01T10:16:30.205Z,17.12
2022-10-01T10:19:03.036Z,17.13
2022-10-01T10:21:35.982Z,17.21
2022-10-01T10:24:08.443Z,17.29
2022-10-01T10:26:43.526Z,17.33
2022-10-01T10:29:30.609Z,17.33
2022-10-01T10:32:02.280Z,17.36
2022-10-01T10:34:35.690Z,17.38
2022-10-01T10:37:09.390Z,17.43
2022-10-01T10:39:42.113Z,17.47
2022-10-01T10:42:19.020Z,17.66
2022-10-01T10:44:51.792Z,17.78
2022-10-01T10:47:24.536Z,17.59
2022-10-01T10:49:57.136Z,17.68
2022-10-01T10:52:33.436Z,17.94
2022-10-01T10:55:21.827Z,18.17
2022-10-01T10:57:57.712Z,18.41
2022-10-01T11:00:29.932Z,18.53
2022-10-01T11:03:04.246Z,18.66
2022-10-01T11:05:37.656Z,18.88
2022-10-01T11:08:16.880Z,18.97
2022-10-01T11:10:55.412Z,19.02
2022-10-01T11:13:46.302Z,18.96
2022-10-01T11:16:40.544Z,19.02
2022-10-01T11:19:26.493Z,19.05
2022-10-01T11:22:18.513Z,19.31
2022-10-01T11:25:11.716Z,19.71
2022-10-01T11:27:51.728Z,19.67
2022-10-01T11:30:27.862Z,19.54
2022-10-01T11:33:04.468Z,19.70
2022-10-01T11:35:50.628Z,19.80
2022-10-01T11:38:48.454Z,19.91
2022-10-01T11:41:31.786Z,19.98
2022-10-01T11:44:07.818Z,20.08
2022-10-01T11:46:53.670Z,20.39
2022-10-01T11:49:47.653Z,20.63
2022-10-01T11:52:41.120Z,20.60
2022-10-01T11:55:33.179Z,20.63
2022-10-01T11:58:22.155Z,20.80
2022-10-01T12:01:02.928Z,20.79
2022-10-01T12:03:46.498Z,20.71
2022-10-01T12:06:23.155Z,20.59
2022-10-01T12:09:02.368Z,20.63
2022-10-01T12:11:38.802Z,20.82
2022-10-01T12:14:14.461Z,21.21
2022-10-01T12:16:50.528Z,21.51
2022-10-01T12:19:27.641Z,21.60
2022-10-01T12:22:02.644Z,21.44
2022-10-01T12:24:37.366Z,21.52
2022-10-01T12:27:31.064Z,21.52
2022-10-01T12:30:06.064Z,21.56
2022-10-01T12:32:57.197Z,21.57
2022-10-01T12:35:42.600Z,21.61
2022-10-01T12:38:26.211Z,21.64
2022-10-01T12:41:06.430Z,21.79
2022-10-01T12:44:07.083Z,21.94
2022-10-01T12:46:42.282Z,21.86
2022-10-01T12:49:22.651Z,21.47
2022-10-01T12:52:03.617Z,21.61
2022-10-01T12:55:00.563Z,21.28
2022-10-01T12:57:43.089Z,21.22
2022-10-01T13:00:18.366Z,21.19
2022-10-01T13:03:29.925Z,21.31
2022-10-01T13:06:17.736Z,21.44
2022-10-01T13:09:12.728Z,21.58
2022-10-01T13:12:03.830Z,21.81
2022-10-01T13:14:36.009Z,21.87
2022-10-01T13:17:15.039Z,21.83
2022-10-01T13:19:54.225Z,21.69
2022-10-01T13:22:37.403Z,21.62
2022-10-01T13:25:26.813Z,21.72
2022-10-01T13:28:02.504Z,21.68
2022-10-01T13:30:47.917Z,21.72
2022-10-01T13:33:27.328Z,21.48
2022-10-01T13:36:00.340Z,21.37
2022-10-01T13:38:33.835Z,21.31
2022-10-01T13:41:09.825Z,21.21
2022-10-01T13:43:44.218Z,21.21
2022-10-01T13:46:18.329Z,21.21
2022-10-01T13:48:51.313Z,21.18
2022-10-01T13:51:22.007Z,21.16
2022-10-01T13:54:01.392Z,21.11
2022-10-01T13:56:39.819Z,20.97
2022-10-01T13:59:35.944Z,20.76
2022-10-01T14:02:23.482Z,20.68
2022-10-01T14:04:54.513Z,20.56
2022-10-01T14:07:28.198Z,20.46
2022-10-01T14:10:03.790Z,20.54
2022-10-01T14:12:51.734Z,20.51
2022-10-01T14:15:38.211Z,20.43
2022-10-01T14:18:13.817Z,20.32
2022-10-01T14:20:55.828Z,20.27
2022-10-01T14:23:32.441Z,20.26
2022-10-01T14:26:10.062Z,20.26
2022-10-01T14:28:59.391Z,20.25
2022-10-01T14:31:40.459Z,20.19
2022-10-01T14:34:23.271Z,20.16
2022-10-01T14:36:56.313Z,20.13
2022-10-01T14:39:29.325Z,20.06
2022-10-01T14:42:01.254Z,19.98
2022-10-01T14:44:40.075Z,19.99
2022-10-01T14:47:22.017Z,19.95
2022-10-01T14:49:54.254Z,19.88
2022-10-01T14:52:26.683Z,19.82
2022-10-01T14:55:02.344Z,19.83
2022-10-01T14:57:36.594Z,19.84
2022-10-01T15:00:16.500Z,19.76
2022-10-01T15:02:52.065Z,19.75
2022-10-01T15:05:26.155Z,19.70
2022-10-01T15:07:56.453Z,19.70
2022-10-01T15:10:30.507Z,19.71
2022-10-01T15:13:00.745Z,19.68
2022-10-01T15:15:37.373Z,19.66
2022-10-01T15:18:08.144Z,19.62
2022-10-01T15:20:39.202Z,19.58
2022-10-01T15:23:09.503Z,19.52
2022-10-01T15:25:42.369Z,19.49
2022-10-01T15:28:17.545Z,19.42
2022-10-01T15:30:50.632Z,19.36
2022-10-01T15:33:29.720Z,19.34
2022-10-01T15:36:02.194Z,19.29
2022-10-01T15:38:35.025Z,19.23
2022-10-01T15:41:30.641Z,19.15
2022-10-01T15:44:01.563Z,19.05
2022-10-01T15:46:36.502Z,18.99
2022-10-01T15:49:27.785Z,18.93
2022-10-01T15:52:14.525Z,18.88
2022-10-01T15:54:50.696Z,18.85
2022-10-01T15:57:23.496Z,18.84
2022-10-01T15:59:57.953Z,18.79
2022-10-01T16:02:33.940Z,18.79
2022-10-01T16:05:09.152Z,18.73
2022-10-01T16:07:40.460Z,18.75
2022-10-01T16:10:28.636Z,18.72
2022-10-01T16:12:59.012Z,18.71
2022-10-01T16:15:31.644Z,18.67
2022-10-01T16:18:05.779Z,18.62
2022-10-01T16:20:39.739Z,18.57
2022-10-01T16:23:37.875Z,18.54
2022-10-01T16:26:35.063Z,18.50
2022-10-01T16:29:09.192Z,18.49
2022-10-01T16:31:47.548Z,18.47
2022-10-01T16:34:22.062Z,18.45
2022-10-01T16:36:52.389Z,18.45
2022-10-01T16:39:26.101Z,18.43
2022-10-01T16:42:12.363Z,18.41
2022-10-01T16:44:50.095Z,18.40
2022-10-01T16:47:20.328Z,18.45
2022-10-01T16:49:54.452Z,18.44
2022-10-01T16:52:24.754Z,18.43
2022-10-01T16:54:54.853Z,18.40
2022-10-01T16:57:25.049Z,18.44
2022-10-01T16:59:55.155Z,18.39
2022-10-01T17:02:25.400Z,18.32
2022-10-01T17:04:58.203Z,18.30
2022-10-01T17:07:29.263Z,18.29
2022-10-01T17:10:00.116Z,18.21
2022-10-01T17:12:30.269Z,18.13
2022-10-01T17:15:00.404Z,18.07
2022-10-01T17:17:31.360Z,18.06
2022-10-01T17:20:04.279Z,18.01
2022-10-01T17:22:34.613Z,17.93
2022-10-01T17:25:04.813Z,17.92
2022-10-01T17:27:35.066Z,17.88
2022-10-01T17:30:05.390Z,17.81
2022-10-01T17:32:37.344Z,17.73
2022-10-01T17:35:11.736Z,17.59
2022-10-01T17:37:43.148Z,17.52
2022-10-01T17:40:14.522Z,17.43
2022-10-01T17:42:44.897Z,17.43
2022-10-01T17:45:19.780Z,17.36
2022-10-01T17:47:51.947Z,17.28
2022-10-01T17:50:30.417Z,17.27
2022-10-01T17:53:01.579Z,17.23
2022-10-01T17:55:33.940Z,17.17
2022-10-01T17:58:04.344Z,17.11
2022-10-01T18:00:34.570Z,17.15
2022-10-01T18:03:06.968Z,17.06
2022-10-01T18:05:42.360Z,17.02
2022-10-01T18:08:13.652Z,17.01
2022-10-01T18:10:43.850Z,16.96
2022-10-01T18:13:14.085Z,16.93
2022-10-01T18:15:44.230Z,16.88
2022-10-01T18:19:45.714Z,16.72
2022-10-01T18:21:08.996Z,16.60
2022-10-01T18:23:39.561Z,16.58
2022-10-01T18:26:11.187Z,16.53
2022-10-01T18:28:41.679Z,16.49
2022-10-01T18:31:24.397Z,16.38
2022-10-01T18:33:57.117Z,16.38
2022-10-01T18:36:42.540Z,16.27
2022-10-01T18:39:20.568Z,16.24
2022-10-01T18:41:55.441Z,16.15
2022-10-01T18:44:26.734Z,16.03
2022-10-01T18:47:16.843Z,15.94
2022-10-01T18:50:14.634Z,15.90
2022-10-01T18:53:01.203Z,15.81
2022-10-01T18:55:52.843Z,15.81
2022-10-01T18:58:41.946Z,15.78
2022-10-01T19:01:23.945Z,15.77
2022-10-01T19:04:15.079Z,15.68
2022-10-01T19:07:05.900Z,15.73
2022-10-01T19:09:48.155Z,15.67
2022-10-01T19:12:33.413Z,15.61
2022-10-01T19:15:17.170Z,15.61
2022-10-01T19:18:14.686Z,15.55
2022-10-01T19:20:53.651Z,15.45
2022-10-01T19:23:39.401Z,15.37
2022-10-01T19:26:19.528Z,15.38
2022-10-01T19:29:04.457Z,15.37
2022-10-01T19:31:43.244Z,15.42
2022-10-01T19:34:20.432Z,15.37
2022-10-01T19:36:57.500Z,15.40
2022-10-01T19:39:30.099Z,15.25
2022-10-01T19:42:06.630Z,15.37
2022-10-01T19:44:44.423Z,15.33
2022-10-01T19:47:34.634Z,15.41
2022-10-01T19:50:15.252Z,15.36
2022-10-01T19:52:51.544Z,15.37
2022-10-01T19:55:25.790Z,15.26
2022-10-01T19:57:59.552Z,15.28
2022-10-01T20:00:29.786Z,15.38
2022-10-01T20:03:11.982Z,15.26
2022-10-01T20:05:47.731Z,15.14
2022-10-01T20:08:25.130Z,15.20
2022-10-01T20:10:57.984Z,15.17
2022-10-01T20:14:00.402Z,15.24
2022-10-01T20:16:40.955Z,15.21
2022-10-01T20:19:20.332Z,15.17
2022-10-01T20:22:03.291Z,15.12
2022-10-01T20:24:44.568Z,15.15
2022-10-01T20:27:25.207Z,15.10
2022-10-01T20:30:07.348Z,15.15
2022-10-01T20:32:45.379Z,15.12
2022-10-01T20:35:27.537Z,15.08
2022-10-01T20:38:07.041Z,15.09
2022-10-01T20:40:43.285Z,15.02
2022-10-01T20:43:19.307Z,14.91
2022-10-01T20:45:55.443Z,14.93
2022-10-01T20:48:30.453Z,14.94
2022-10-01T20:51:06.821Z,15.01
2022-10-01T20:53:42.029Z,15.01
2022-10-01T20:56:19.359Z,15.01
2022-10-01T20:58:53.788Z,15.12
2022-10-01T21:01:30.371Z,15.14
2022-10-01T21:04:06.486Z,15.24
2022-10-01T21:06:44.571Z,15.25
2022-10-01T21:09:24.626Z,15.24
2022-10-01T21:12:00.143Z,15.18
2022-10-01T21:14:36.889Z,15.10
2022-10-01T21:17:27.290Z,15.05
2022-10-01T21:20:11.670Z,15.15
2022-10-01T21:22:57.018Z,15.15
2022-10-01T21:25:38.725Z,15.03
2022-10-01T21:28:25.673Z,15.03
2022-10-01T21:31:07.498Z,15.00
2022-10-01T21:33:47.812Z,14.95
2022-10-01T21:36:23.250Z,14.95
2022-10-01T21:38:58.342Z,15.02
2022-10-01T21:41:48.279Z,14.96
2022-10-01T21:44:41.743Z,14.90
2022-10-01T21:47:21.087Z,14.83
2022-10-01T21:50:05.260Z,14.82
2022-10-01T21:52:47.435Z,14.76
2022-10-01T21:55:42.629Z,14.80
2022-10-01T21:58:28.220Z,14.82
2022-10-01T22:01:11.102Z,14.76
2022-10-01T22:03:50.947Z,14.67
2022-10-01T22:06:32.070Z,14.70
2022-10-01T22:09:14.632Z,14.59
2022-10-01T22:11:56.343Z,14.66
2022-10-01T22:14:27.051Z,14.62
2022-10-01T22:17:00.132Z,14.64
2022-10-01T22:19:32.583Z,14.59
2022-10-01T22:22:11.374Z,14.61
2022-10-01T22:24:46.686Z,14.50
2022-10-01T22:27:23.051Z,14.62
2022-10-01T22:29:58.200Z,14.54
2022-10-01T22:32:36.021Z,14.39
2022-10-01T22:35:10.880Z,14.33
2022-10-01T22:37:52.374Z,14.32
2022-10-01T22:40:30.374Z,14.29
2022-10-01T22:43:08.217Z,14.16
2022-10-01T22:45:53.836Z,14.13
2022-10-01T22:48:44.026Z,14.17
2022-10-01T22:51:31.144Z,14.22
2022-10-01T22:54:25.780Z,14.17
2022-10-01T22:57:07.529Z,14.09
2022-10-01T22:59:49.278Z,14.12
2022-10-01T23:02:27.819Z,14.13
2022-10-01T23:05:11.866Z,14.09
2022-10-01T23:07:55.437Z,14.02
2022-10-01T23:10:39.325Z,13.92
2022-10-01T23:13:22.191Z,13.88
2022-10-01T23:16:01.159Z,13.79
2022-10-01T23:18:40.981Z,13.73
2022-10-01T23:21:25.768Z,13.76
2022-10-01T23:24:05.212Z,13.69
2022-10-01T23:26:49.567Z,13.66
2022-10-01T23:29:42.824Z,13.70
2022-10-01T23:32:27.037Z,13.69
2022-10-01T23:35:02.725Z,13.75
2022-10-01T23:38:04.356Z,13.77
2022-10-01T23:40:37.921Z,13.74
2022-10-01T23:43:14.482Z,13.67
2022-10-01T23:45:49.350Z,13.57
2022-10-01T23:48:23.812Z,13.57
2022-10-01T23:51:01.210Z,13.53
2022-10-01T23:53:37.368Z,13.54
2022-10-01T23:56:24.387Z,13.51
2022-10-01T23:59:04.883Z,13.44
